sensor_id;sensor_type;location;lat;lon;timestamp;P1;durP1;ratioP1;P2;durP2;ratioP2
7557;SDS011;3820;51.098;13.716;2023-06-22T00:01:20;7.28;;;5.03;;
7557;SDS011;3820;51.098;13.716;2023-06-22T00:03:49;9.18;;;4.80;;
7557;SDS011;3820;51.098;13.716;2023-06-22T00:06:15;7.40;;;5.20;;
7557;SDS011;3820;51.098;13.716;2023-06-22T00:08:42;6.57;;;4.85;;
7557;SDS011;3820;51.098;13.716;2023-06-22T00:11:09;7.88;;;5.22;;
7557;SDS011;3820;51.098;13.716;2023-06-22T00:13:36;8.27;;;5.70;;
7557;SDS011;3820;51.098;13.716;2023-06-22T00:16:03;7.82;;;5.50;;
7557;SDS011;3820;51.098;13.716;2023-06-22T00:18:30;8.27;;;5.32;;
7557;SDS011;3820;51.098;13.716;2023-06-22T00:20:57;8.73;;;5.35;;
7557;SDS011;3820;51.098;13.716;2023-06-22T00:23:25;8.43;;;5.70;;
7557;SDS011;3820;51.098;13.716;2023-06-22T00:25:52;8.85;;;5.93;;
7557;SDS011;3820;51.098;13.716;2023-06-22T00:28:19;8.00;;;5.28;;
7557;SDS011;3820;51.098;13.716;2023-06-22T00:30:45;8.20;;;6.10;;
7557;SDS011;3820;51.098;13.716;2023-06-22T00:33:12;8.90;;;5.88;;
7557;SDS011;3820;51.098;13.716;2023-06-22T00:35:39;7.78;;;5.30;;
7557;SDS011;3820;51.098;13.716;2023-06-22T00:38:08;9.55;;;5.80;;
7557;SDS011;3820;51.098;13.716;2023-06-22T00:40:35;10.95;;;6.10;;
7557;SDS011;3820;51.098;13.716;2023-06-22T00:43:02;8.18;;;6.03;;
7557;SDS011;3820;51.098;13.716;2023-06-22T00:45:28;10.55;;;6.22;;
7557;SDS011;3820;51.098;13.716;2023-06-22T00:47:56;9.25;;;6.22;;
7557;SDS011;3820;51.098;13.716;2023-06-22T00:50:27;9.07;;;5.53;;
7557;SDS011;3820;51.098;13.716;2023-06-22T00:53:00;9.95;;;6.00;;
7557;SDS011;3820;51.098;13.716;2023-06-22T00:55:36;9.35;;;5.88;;
7557;SDS011;3820;51.098;13.716;2023-06-22T00:58:04;9.68;;;6.30;;
7557;SDS011;3820;51.098;13.716;2023-06-22T01:00:34;9.20;;;6.00;;
7557;SDS011;3820;51.098;13.716;2023-06-22T01:03:01;10.32;;;6.13;;
7557;SDS011;3820;51.098;13.716;2023-06-22T01:05:28;8.02;;;5.70;;
7557;SDS011;3820;51.098;13.716;2023-06-22T01:08:05;10.65;;;5.53;;
7557;SDS011;3820;51.098;13.716;2023-06-22T01:10:41;8.45;;;5.80;;
7557;SDS011;3820;51.098;13.716;2023-06-22T01:16:02;9.60;;;5.65;;
7557;SDS011;3820;51.098;13.716;2023-06-22T01:18:32;8.60;;;5.70;;
7557;SDS011;3820;51.098;13.716;2023-06-22T01:21:04;10.70;;;6.10;;
7557;SDS011;3820;51.098;13.716;2023-06-22T01:28:55;9.25;;;6.20;;
7557;SDS011;3820;51.098;13.716;2023-06-22T01:31:24;9.60;;;6.15;;
7557;SDS011;3820;51.098;13.716;2023-06-22T01:33:59;9.35;;;6.30;;
7557;SDS011;3820;51.098;13.716;2023-06-22T01:36:27;9.48;;;6.63;;
7557;SDS011;3820;51.098;13.716;2023-06-22T01:38:55;7.70;;;5.70;;
7557;SDS011;3820;51.098;13.716;2023-06-22T01:41:27;11.05;;;6.72;;
7557;SDS011;3820;51.098;13.716;2023-06-22T01:43:56;10.68;;;6.05;;
7557;SDS011;3820;51.098;13.716;2023-06-22T01:46:28;9.10;;;6.35;;
7557;SDS011;3820;51.098;13.716;2023-06-22T01:48:55;9.82;;;6.18;;
7557;SDS011;3820;51.098;13.716;2023-06-22T01:51:22;10.40;;;6.63;;
7557;SDS011;3820;51.098;13.716;2023-06-22T01:53:49;10.57;;;6.97;;
7557;SDS011;3820;51.098;13.716;2023-06-22T01:56:16;10.52;;;6.47;;
7557;SDS011;3820;51.098;13.716;2023-06-22T01:58:50;8.45;;;5.70;;
7557;SDS011;3820;51.098;13.716;2023-06-22T02:01:24;14.15;;;7.32;;
7557;SDS011;3820;51.098;13.716;2023-06-22T02:04:06;10.27;;;6.03;;
7557;SDS011;3820;51.098;13.716;2023-06-22T02:06:39;8.68;;;5.70;;
7557;SDS011;3820;51.098;13.716;2023-06-22T02:09:09;10.52;;;6.60;;
7557;SDS011;3820;51.098;13.716;2023-06-22T02:11:40;10.20;;;5.93;;
7557;SDS011;3820;51.098;13.716;2023-06-22T02:14:07;9.65;;;6.20;;
7557;SDS011;3820;51.098;13.716;2023-06-22T02:16:35;9.88;;;6.32;;
7557;SDS011;3820;51.098;13.716;2023-06-22T02:19:02;10.07;;;6.78;;
7557;SDS011;3820;51.098;13.716;2023-06-22T02:21:32;9.75;;;6.28;;
7557;SDS011;3820;51.098;13.716;2023-06-22T02:24:00;9.85;;;6.28;;
7557;SDS011;3820;51.098;13.716;2023-06-22T02:26:27;10.57;;;6.38;;
7557;SDS011;3820;51.098;13.716;2023-06-22T02:28:54;9.60;;;6.55;;
7557;SDS011;3820;51.098;13.716;2023-06-22T02:31:21;9.52;;;6.18;;
7557;SDS011;3820;51.098;13.716;2023-06-22T02:33:48;11.70;;;6.75;;
7557;SDS011;3820;51.098;13.716;2023-06-22T02:36:15;11.70;;;6.75;;
7557;SDS011;3820;51.098;13.716;2023-06-22T02:38:43;11.00;;;6.95;;
7557;SDS011;3820;51.098;13.716;2023-06-22T02:41:15;11.40;;;7.30;;
7557;SDS011;3820;51.098;13.716;2023-06-22T02:43:45;12.20;;;6.22;;
7557;SDS011;3820;51.098;13.716;2023-06-22T02:46:12;8.85;;;6.28;;
7557;SDS011;3820;51.098;13.716;2023-06-22T02:48:40;10.38;;;6.80;;
7557;SDS011;3820;51.098;13.716;2023-06-22T02:51:07;10.40;;;6.53;;
7557;SDS011;3820;51.098;13.716;2023-06-22T02:53:34;11.02;;;7.18;;
7557;SDS011;3820;51.098;13.716;2023-06-22T02:56:04;12.25;;;7.38;;
7557;SDS011;3820;51.098;13.716;2023-06-22T02:58:33;9.38;;;6.35;;
7557;SDS011;3820;51.098;13.716;2023-06-22T03:01:05;11.63;;;6.85;;
7557;SDS011;3820;51.098;13.716;2023-06-22T03:03:32;9.73;;;6.15;;
7557;SDS011;3820;51.098;13.716;2023-06-22T03:05:59;9.15;;;6.22;;
7557;SDS011;3820;51.098;13.716;2023-06-22T03:08:27;10.43;;;6.50;;
7557;SDS011;3820;51.098;13.716;2023-06-22T03:10:55;11.43;;;6.85;;
7557;SDS011;3820;51.098;13.716;2023-06-22T03:13:22;9.70;;;6.43;;
7557;SDS011;3820;51.098;13.716;2023-06-22T03:15:49;10.93;;;6.72;;
7557;SDS011;3820;51.098;13.716;2023-06-22T03:18:16;9.88;;;6.80;;
7557;SDS011;3820;51.098;13.716;2023-06-22T03:20:43;10.70;;;7.18;;
7557;SDS011;3820;51.098;13.716;2023-06-22T03:23:10;10.23;;;6.20;;
7557;SDS011;3820;51.098;13.716;2023-06-22T03:25:36;9.93;;;6.45;;
7557;SDS011;3820;51.098;13.716;2023-06-22T03:28:03;10.98;;;7.18;;
7557;SDS011;3820;51.098;13.716;2023-06-22T03:30:30;10.60;;;6.55;;
7557;SDS011;3820;51.098;13.716;2023-06-22T03:32:57;12.30;;;7.20;;
7557;SDS011;3820;51.098;13.716;2023-06-22T03:35:23;10.63;;;7.15;;
7557;SDS011;3820;51.098;13.716;2023-06-22T03:37:50;9.77;;;6.72;;
7557;SDS011;3820;51.098;13.716;2023-06-22T03:40:17;11.15;;;7.50;;
7557;SDS011;3820;51.098;13.716;2023-06-22T03:42:43;10.02;;;6.55;;
7557;SDS011;3820;51.098;13.716;2023-06-22T03:45:10;11.45;;;7.30;;
7557;SDS011;3820;51.098;13.716;2023-06-22T03:47:37;13.10;;;7.22;;
7557;SDS011;3820;51.098;13.716;2023-06-22T03:50:03;10.90;;;6.63;;
7557;SDS011;3820;51.098;13.716;2023-06-22T03:52:30;10.23;;;7.15;;
7557;SDS011;3820;51.098;13.716;2023-06-22T03:54:57;11.32;;;7.40;;
7557;SDS011;3820;51.098;13.716;2023-06-22T03:57:23;13.38;;;7.85;;
7557;SDS011;3820;51.098;13.716;2023-06-22T03:59:50;12.68;;;7.88;;
7557;SDS011;3820;51.098;13.716;2023-06-22T04:02:16;10.60;;;7.15;;
7557;SDS011;3820;51.098;13.716;2023-06-22T04:04:43;11.48;;;7.63;;
7557;SDS011;3820;51.098;13.716;2023-06-22T04:07:10;10.63;;;7.03;;
7557;SDS011;3820;51.098;13.716;2023-06-22T04:09:36;11.40;;;7.50;;
7557;SDS011;3820;51.098;13.716;2023-06-22T04:12:04;11.40;;;7.50;;
7557;SDS011;3820;51.098;13.716;2023-06-22T04:14:30;11.55;;;6.63;;
7557;SDS011;3820;51.098;13.716;2023-06-22T04:16:57;12.10;;;7.82;;
7557;SDS011;3820;51.098;13.716;2023-06-22T04:19:24;10.82;;;7.53;;
7557;SDS011;3820;51.098;13.716;2023-06-22T04:21:50;13.02;;;7.30;;
7557;SDS011;3820;51.098;13.716;2023-06-22T04:24:17;10.88;;;7.10;;
7557;SDS011;3820;51.098;13.716;2023-06-22T04:26:44;11.85;;;7.60;;
7557;SDS011;3820;51.098;13.716;2023-06-22T04:29:11;11.75;;;7.32;;
7557;SDS011;3820;51.098;13.716;2023-06-22T04:31:38;10.85;;;7.55;;
7557;SDS011;3820;51.098;13.716;2023-06-22T04:34:06;12.45;;;7.47;;
7557;SDS011;3820;51.098;13.716;2023-06-22T04:36:34;11.68;;;7.20;;
7557;SDS011;3820;51.098;13.716;2023-06-22T04:39:05;10.65;;;7.00;;
7557;SDS011;3820;51.098;13.716;2023-06-22T04:41:39;10.80;;;6.70;;
7557;SDS011;3820;51.098;13.716;2023-06-22T04:46:39;12.70;;;7.10;;
7557;SDS011;3820;51.098;13.716;2023-06-22T04:49:07;11.40;;;6.78;;
7557;SDS011;3820;51.098;13.716;2023-06-22T04:51:40;11.38;;;7.30;;
7557;SDS011;3820;51.098;13.716;2023-06-22T04:54:07;12.13;;;7.40;;
7557;SDS011;3820;51.098;13.716;2023-06-22T04:56:35;11.90;;;6.97;;
7557;SDS011;3820;51.098;13.716;2023-06-22T04:59:02;12.48;;;7.70;;
7557;SDS011;3820;51.098;13.716;2023-06-22T05:01:29;10.27;;;6.68;;
7557;SDS011;3820;51.098;13.716;2023-06-22T05:03:58;11.45;;;7.15;;
7557;SDS011;3820;51.098;13.716;2023-06-22T05:06:27;11.30;;;7.32;;
7557;SDS011;3820;51.098;13.716;2023-06-22T05:08:54;11.70;;;7.85;;
7557;SDS011;3820;51.098;13.716;2023-06-22T05:11:25;10.55;;;7.25;;
7557;SDS011;3820;51.098;13.716;2023-06-22T05:13:52;11.35;;;7.65;;
7557;SDS011;3820;51.098;13.716;2023-06-22T05:16:19;9.40;;;6.65;;
7557;SDS011;3820;51.098;13.716;2023-06-22T05:18:53;12.45;;;7.68;;
7557;SDS011;3820;51.098;13.716;2023-06-22T05:21:23;11.20;;;7.65;;
7557;SDS011;3820;51.098;13.716;2023-06-22T05:23:51;12.15;;;8.07;;
7557;SDS011;3820;51.098;13.716;2023-06-22T05:26:19;11.93;;;7.78;;
7557;SDS011;3820;51.098;13.716;2023-06-22T05:28:47;10.73;;;7.47;;
7557;SDS011;3820;51.098;13.716;2023-06-22T05:31:15;11.80;;;7.50;;
7557;SDS011;3820;51.098;13.716;2023-06-22T05:33:42;9.95;;;6.85;;
7557;SDS011;3820;51.098;13.716;2023-06-22T05:36:09;11.43;;;7.13;;
7557;SDS011;3820;51.098;13.716;2023-06-22T05:38:36;12.23;;;7.22;;
7557;SDS011;3820;51.098;13.716;2023-06-22T05:41:03;8.55;;;6.15;;
7557;SDS011;3820;51.098;13.716;2023-06-22T05:43:29;11.35;;;7.03;;
7557;SDS011;3820;51.098;13.716;2023-06-22T05:45:56;12.50;;;7.53;;
7557;SDS011;3820;51.098;13.716;2023-06-22T05:48:23;8.90;;;6.85;;
7557;SDS011;3820;51.098;13.716;2023-06-22T05:50:50;11.63;;;7.68;;
7557;SDS011;3820;51.098;13.716;2023-06-22T05:53:16;12.05;;;7.35;;
7557;SDS011;3820;51.098;13.716;2023-06-22T05:55:43;11.88;;;7.32;;
7557;SDS011;3820;51.098;13.716;2023-06-22T05:58:10;10.18;;;7.10;;
7557;SDS011;3820;51.098;13.716;2023-06-22T06:00:36;11.73;;;7.35;;
7557;SDS011;3820;51.098;13.716;2023-06-22T06:03:03;12.07;;;7.72;;
7557;SDS011;3820;51.098;13.716;2023-06-22T06:05:30;11.23;;;7.50;;
7557;SDS011;3820;51.098;13.716;2023-06-22T06:07:57;10.23;;;6.90;;
7557;SDS011;3820;51.098;13.716;2023-06-22T06:10:24;11.98;;;7.35;;
7557;SDS011;3820;51.098;13.716;2023-06-22T06:12:51;10.32;;;7.10;;
7557;SDS011;3820;51.098;13.716;2023-06-22T06:15:18;8.90;;;6.30;;
7557;SDS011;3820;51.098;13.716;2023-06-22T06:17:48;9.55;;;6.97;;
7557;SDS011;3820;51.098;13.716;2023-06-22T06:20:17;9.45;;;6.50;;
7557;SDS011;3820;51.098;13.716;2023-06-22T06:22:46;8.38;;;6.25;;
7557;SDS011;3820;51.098;13.716;2023-06-22T06:25:13;8.30;;;6.15;;
7557;SDS011;3820;51.098;13.716;2023-06-22T06:27:43;9.35;;;6.35;;
7557;SDS011;3820;51.098;13.716;2023-06-22T06:30:10;9.23;;;6.68;;
7557;SDS011;3820;51.098;13.716;2023-06-22T06:32:38;7.65;;;5.80;;
7557;SDS011;3820;51.098;13.716;2023-06-22T06:35:06;9.07;;;6.32;;
7557;SDS011;3820;51.098;13.716;2023-06-22T06:37:35;8.50;;;6.30;;
7557;SDS011;3820;51.098;13.716;2023-06-22T06:40:04;8.93;;;6.32;;
7557;SDS011;3820;51.098;13.716;2023-06-22T06:42:34;7.65;;;5.93;;
7557;SDS011;3820;51.098;13.716;2023-06-22T06:45:01;8.80;;;6.75;;
7557;SDS011;3820;51.098;13.716;2023-06-22T06:47:27;7.70;;;6.50;;
7557;SDS011;3820;51.098;13.716;2023-06-22T06:49:54;10.18;;;6.38;;
7557;SDS011;3820;51.098;13.716;2023-06-22T06:52:20;9.32;;;6.65;;
7557;SDS011;3820;51.098;13.716;2023-06-22T06:54:48;9.40;;;6.55;;
7557;SDS011;3820;51.098;13.716;2023-06-22T06:57:14;9.13;;;7.07;;
7557;SDS011;3820;51.098;13.716;2023-06-22T06:59:41;7.63;;;6.35;;
7557;SDS011;3820;51.098;13.716;2023-06-22T07:02:08;8.70;;;6.60;;
7557;SDS011;3820;51.098;13.716;2023-06-22T07:04:34;8.55;;;6.05;;
7557;SDS011;3820;51.098;13.716;2023-06-22T07:07:01;8.10;;;6.07;;
7557;SDS011;3820;51.098;13.716;2023-06-22T07:09:28;8.05;;;6.22;;
7557;SDS011;3820;51.098;13.716;2023-06-22T07:11:55;7.70;;;5.97;;
7557;SDS011;3820;51.098;13.716;2023-06-22T07:14:21;7.85;;;6.03;;
7557;SDS011;3820;51.098;13.716;2023-06-22T07:16:48;8.07;;;6.22;;
7557;SDS011;3820;51.098;13.716;2023-06-22T07:19:14;8.27;;;6.38;;
7557;SDS011;3820;51.098;13.716;2023-06-22T07:21:41;7.85;;;6.50;;
7557;SDS011;3820;51.098;13.716;2023-06-22T07:24:07;8.18;;;6.35;;
7557;SDS011;3820;51.098;13.716;2023-06-22T07:26:34;8.70;;;6.78;;
7557;SDS011;3820;51.098;13.716;2023-06-22T07:29:00;7.85;;;5.80;;
7557;SDS011;3820;51.098;13.716;2023-06-22T07:31:27;8.82;;;7.22;;
7557;SDS011;3820;51.098;13.716;2023-06-22T07:33:54;10.70;;;7.55;;
7557;SDS011;3820;51.098;13.716;2023-06-22T07:36:20;7.93;;;6.15;;
7557;SDS011;3820;51.098;13.716;2023-06-22T07:38:47;7.75;;;6.95;;
7557;SDS011;3820;51.098;13.716;2023-06-22T07:41:14;8.95;;;7.00;;
7557;SDS011;3820;51.098;13.716;2023-06-22T07:43:41;9.30;;;7.13;;
7557;SDS011;3820;51.098;13.716;2023-06-22T07:46:07;9.05;;;7.13;;
7557;SDS011;3820;51.098;13.716;2023-06-22T07:48:36;8.63;;;7.28;;
7557;SDS011;3820;51.098;13.716;2023-06-22T07:51:04;7.93;;;6.20;;
7557;SDS011;3820;51.098;13.716;2023-06-22T07:53:30;9.50;;;6.95;;
7557;SDS011;3820;51.098;13.716;2023-06-22T07:55:57;8.68;;;6.88;;
7557;SDS011;3820;51.098;13.716;2023-06-22T07:58:24;7.55;;;6.10;;
7557;SDS011;3820;51.098;13.716;2023-06-22T08:00:50;7.70;;;6.43;;
7557;SDS011;3820;51.098;13.716;2023-06-22T08:03:17;7.55;;;6.60;;
7557;SDS011;3820;51.098;13.716;2023-06-22T08:05:44;7.47;;;6.38;;
7557;SDS011;3820;51.098;13.716;2023-06-22T08:08:10;9.15;;;7.22;;
7557;SDS011;3820;51.098;13.716;2023-06-22T08:10:37;9.40;;;6.90;;
7557;SDS011;3820;51.098;13.716;2023-06-22T08:13:03;9.07;;;6.80;;
7557;SDS011;3820;51.098;13.716;2023-06-22T08:15:30;7.82;;;6.18;;
7557;SDS011;3820;51.098;13.716;2023-06-22T08:17:57;7.80;;;6.43;;
7557;SDS011;3820;51.098;13.716;2023-06-22T08:20:24;8.85;;;6.60;;
7557;SDS011;3820;51.098;13.716;2023-06-22T08:22:50;8.00;;;6.53;;
7557;SDS011;3820;51.098;13.716;2023-06-22T08:25:17;8.63;;;6.18;;
7557;SDS011;3820;51.098;13.716;2023-06-22T08:27:44;7.55;;;6.15;;
7557;SDS011;3820;51.098;13.716;2023-06-22T08:30:12;7.38;;;6.32;;
7557;SDS011;3820;51.098;13.716;2023-06-22T08:32:39;7.63;;;6.15;;
7557;SDS011;3820;51.098;13.716;2023-06-22T08:35:06;7.32;;;6.28;;
7557;SDS011;3820;51.098;13.716;2023-06-22T08:37:35;7.40;;;6.13;;
7557;SDS011;3820;51.098;13.716;2023-06-22T08:40:03;7.55;;;6.03;;
7557;SDS011;3820;51.098;13.716;2023-06-22T08:42:31;8.20;;;5.90;;
7557;SDS011;3820;51.098;13.716;2023-06-22T08:44:58;6.22;;;5.30;;
7557;SDS011;3820;51.098;13.716;2023-06-22T08:47:25;5.63;;;4.78;;
7557;SDS011;3820;51.098;13.716;2023-06-22T08:49:53;5.65;;;4.80;;
7557;SDS011;3820;51.098;13.716;2023-06-22T08:52:20;6.07;;;4.90;;
7557;SDS011;3820;51.098;13.716;2023-06-22T08:54:47;6.75;;;5.60;;
7557;SDS011;3820;51.098;13.716;2023-06-22T08:57:13;6.70;;;5.57;;
7557;SDS011;3820;51.098;13.716;2023-06-22T08:59:40;7.47;;;5.47;;
7557;SDS011;3820;51.098;13.716;2023-06-22T09:02:07;6.55;;;5.00;;
7557;SDS011;3820;51.098;13.716;2023-06-22T09:04:33;6.18;;;4.47;;
7557;SDS011;3820;51.098;13.716;2023-06-22T09:07:01;6.03;;;4.80;;
7557;SDS011;3820;51.098;13.716;2023-06-22T09:09:28;7.00;;;5.00;;
7557;SDS011;3820;51.098;13.716;2023-06-22T09:11:55;6.78;;;5.25;;
7557;SDS011;3820;51.098;13.716;2023-06-22T09:14:21;6.95;;;5.22;;
7557;SDS011;3820;51.098;13.716;2023-06-22T09:16:48;6.43;;;4.65;;
7557;SDS011;3820;51.098;13.716;2023-06-22T09:19:15;5.38;;;4.25;;
7557;SDS011;3820;51.098;13.716;2023-06-22T09:21:41;5.43;;;4.25;;
7557;SDS011;3820;51.098;13.716;2023-06-22T09:24:08;4.78;;;4.00;;
7557;SDS011;3820;51.098;13.716;2023-06-22T09:26:34;5.40;;;3.97;;
7557;SDS011;3820;51.098;13.716;2023-06-22T09:29:01;5.43;;;3.97;;
7557;SDS011;3820;51.098;13.716;2023-06-22T09:31:27;5.72;;;4.47;;
7557;SDS011;3820;51.098;13.716;2023-06-22T09:33:54;5.25;;;4.30;;
7557;SDS011;3820;51.098;13.716;2023-06-22T09:36:21;5.32;;;4.30;;
7557;SDS011;3820;51.098;13.716;2023-06-22T09:38:48;6.55;;;4.80;;
7557;SDS011;3820;51.098;13.716;2023-06-22T09:41:15;5.85;;;4.35;;
7557;SDS011;3820;51.098;13.716;2023-06-22T09:43:42;7.03;;;5.00;;
7557;SDS011;3820;51.098;13.716;2023-06-22T09:46:08;7.05;;;5.20;;
7557;SDS011;3820;51.098;13.716;2023-06-22T09:48:35;5.97;;;4.53;;
7557;SDS011;3820;51.098;13.716;2023-06-22T09:51:06;6.57;;;4.88;;
7557;SDS011;3820;51.098;13.716;2023-06-22T09:53:32;7.35;;;4.82;;
7557;SDS011;3820;51.098;13.716;2023-06-22T09:56:01;5.40;;;4.43;;
7557;SDS011;3820;51.098;13.716;2023-06-22T09:58:28;6.45;;;5.22;;
7557;SDS011;3820;51.098;13.716;2023-06-22T10:00:54;6.25;;;5.07;;
7557;SDS011;3820;51.098;13.716;2023-06-22T10:03:21;7.88;;;5.47;;
7557;SDS011;3820;51.098;13.716;2023-06-22T10:05:48;6.88;;;5.13;;
7557;SDS011;3820;51.098;13.716;2023-06-22T10:08:14;6.45;;;5.40;;
7557;SDS011;3820;51.098;13.716;2023-06-22T10:10:41;8.63;;;5.75;;
7557;SDS011;3820;51.098;13.716;2023-06-22T10:13:08;6.45;;;5.00;;
7557;SDS011;3820;51.098;13.716;2023-06-22T10:15:38;6.50;;;5.53;;
7557;SDS011;3820;51.098;13.716;2023-06-22T10:18:04;6.55;;;5.55;;
7557;SDS011;3820;51.098;13.716;2023-06-22T10:20:31;7.20;;;5.43;;
7557;SDS011;3820;51.098;13.716;2023-06-22T10:22:58;7.43;;;5.80;;
7557;SDS011;3820;51.098;13.716;2023-06-22T10:25:26;6.63;;;5.50;;
7557;SDS011;3820;51.098;13.716;2023-06-22T10:27:53;7.18;;;5.72;;
7557;SDS011;3820;51.098;13.716;2023-06-22T10:30:19;7.18;;;5.47;;
7557;SDS011;3820;51.098;13.716;2023-06-22T10:32:46;6.25;;;5.20;;
7557;SDS011;3820;51.098;13.716;2023-06-22T10:35:12;8.60;;;5.35;;
7557;SDS011;3820;51.098;13.716;2023-06-22T10:37:42;6.72;;;5.43;;
7557;SDS011;3820;51.098;13.716;2023-06-22T10:40:10;6.75;;;5.55;;
7557;SDS011;3820;51.098;13.716;2023-06-22T10:42:38;6.68;;;5.50;;
7557;SDS011;3820;51.098;13.716;2023-06-22T10:45:05;6.78;;;5.00;;
7557;SDS011;3820;51.098;13.716;2023-06-22T10:47:32;5.35;;;4.70;;
7557;SDS011;3820;51.098;13.716;2023-06-22T10:49:59;6.90;;;5.40;;
7557;SDS011;3820;51.098;13.716;2023-06-22T10:52:27;6.30;;;5.53;;
7557;SDS011;3820;51.098;13.716;2023-06-22T10:54:54;7.30;;;5.65;;
7557;SDS011;3820;51.098;13.716;2023-06-22T10:57:21;6.28;;;5.47;;
7557;SDS011;3820;51.098;13.716;2023-06-22T10:59:48;6.75;;;5.60;;
7557;SDS011;3820;51.098;13.716;2023-06-22T11:02:14;6.55;;;5.22;;
7557;SDS011;3820;51.098;13.716;2023-06-22T11:04:41;6.32;;;5.03;;
7557;SDS011;3820;51.098;13.716;2023-06-22T11:07:08;6.75;;;5.25;;
7557;SDS011;3820;51.098;13.716;2023-06-22T11:09:35;7.05;;;5.32;;
7557;SDS011;3820;51.098;13.716;2023-06-22T11:12:02;6.05;;;5.43;;
7557;SDS011;3820;51.098;13.716;2023-06-22T11:14:29;7.90;;;5.95;;
7557;SDS011;3820;51.098;13.716;2023-06-22T11:16:56;6.60;;;5.20;;
7557;SDS011;3820;51.098;13.716;2023-06-22T11:19:25;7.38;;;5.88;;
7557;SDS011;3820;51.098;13.716;2023-06-22T11:21:55;6.28;;;5.53;;
7557;SDS011;3820;51.098;13.716;2023-06-22T11:24:30;5.70;;;4.97;;
7557;SDS011;3820;51.098;13.716;2023-06-22T11:27:03;6.10;;;4.82;;
7557;SDS011;3820;51.098;13.716;2023-06-22T11:29:36;5.85;;;5.03;;
7557;SDS011;3820;51.098;13.716;2023-06-22T11:32:11;8.07;;;5.97;;
7557;SDS011;3820;51.098;13.716;2023-06-22T11:34:40;6.60;;;5.22;;
7557;SDS011;3820;51.098;13.716;2023-06-22T11:37:06;7.07;;;5.68;;
7557;SDS011;3820;51.098;13.716;2023-06-22T11:39:33;6.70;;;5.50;;
7557;SDS011;3820;51.098;13.716;2023-06-22T11:42:08;9.18;;;6.72;;
7557;SDS011;3820;51.098;13.716;2023-06-22T11:44:35;6.85;;;5.40;;
7557;SDS011;3820;51.098;13.716;2023-06-22T11:47:02;7.38;;;5.80;;
7557;SDS011;3820;51.098;13.716;2023-06-22T11:49:30;7.53;;;5.90;;
7557;SDS011;3820;51.098;13.716;2023-06-22T11:51:57;7.82;;;5.38;;
7557;SDS011;3820;51.098;13.716;2023-06-22T11:54:24;5.90;;;5.18;;
7557;SDS011;3820;51.098;13.716;2023-06-22T11:56:50;6.75;;;5.18;;
7557;SDS011;3820;51.098;13.716;2023-06-22T11:59:17;7.25;;;5.50;;
7557;SDS011;3820;51.098;13.716;2023-06-22T12:01:44;7.30;;;5.43;;
7557;SDS011;3820;51.098;13.716;2023-06-22T12:04:14;7.93;;;5.63;;
7557;SDS011;3820;51.098;13.716;2023-06-22T12:06:40;6.82;;;5.65;;
7557;SDS011;3820;51.098;13.716;2023-06-22T12:09:09;7.47;;;5.57;;
7557;SDS011;3820;51.098;13.716;2023-06-22T12:11:36;6.97;;;5.22;;
7557;SDS011;3820;51.098;13.716;2023-06-22T12:14:03;7.28;;;5.43;;
7557;SDS011;3820;51.098;13.716;2023-06-22T12:16:31;7.00;;;5.47;;
7557;SDS011;3820;51.098;13.716;2023-06-22T12:18:57;6.45;;;5.28;;
7557;SDS011;3820;51.098;13.716;2023-06-22T12:21:24;6.80;;;5.32;;
7557;SDS011;3820;51.098;13.716;2023-06-22T12:23:50;7.15;;;5.38;;
7557;SDS011;3820;51.098;13.716;2023-06-22T12:26:17;6.85;;;5.60;;
7557;SDS011;3820;51.098;13.716;2023-06-22T12:28:43;7.60;;;5.93;;
7557;SDS011;3820;51.098;13.716;2023-06-22T12:31:10;7.35;;;5.90;;
7557;SDS011;3820;51.098;13.716;2023-06-22T12:33:36;7.43;;;5.70;;
7557;SDS011;3820;51.098;13.716;2023-06-22T12:36:03;7.10;;;5.40;;
7557;SDS011;3820;51.098;13.716;2023-06-22T12:38:31;6.53;;;5.30;;
7557;SDS011;3820;51.098;13.716;2023-06-22T12:40:58;6.95;;;5.60;;
7557;SDS011;3820;51.098;13.716;2023-06-22T12:43:25;8.32;;;5.22;;
7557;SDS011;3820;51.098;13.716;2023-06-22T12:45:51;8.75;;;5.55;;
7557;SDS011;3820;51.098;13.716;2023-06-22T12:48:20;7.50;;;6.10;;
7557;SDS011;3820;51.098;13.716;2023-06-22T12:50:48;6.53;;;5.35;;
7557;SDS011;3820;51.098;13.716;2023-06-22T12:53:14;7.10;;;5.75;;
7557;SDS011;3820;51.098;13.716;2023-06-22T12:55:41;7.53;;;5.50;;
7557;SDS011;3820;51.098;13.716;2023-06-22T12:58:07;7.28;;;5.85;;
7557;SDS011;3820;51.098;13.716;2023-06-22T13:00:34;7.80;;;5.50;;
7557;SDS011;3820;51.098;13.716;2023-06-22T13:03:00;7.88;;;5.47;;
7557;SDS011;3820;51.098;13.716;2023-06-22T13:05:27;8.48;;;6.45;;
7557;SDS011;3820;51.098;13.716;2023-06-22T13:07:54;7.32;;;5.75;;
7557;SDS011;3820;51.098;13.716;2023-06-22T13:10:21;9.70;;;5.75;;
7557;SDS011;3820;51.098;13.716;2023-06-22T13:12:47;7.63;;;6.13;;
7557;SDS011;3820;51.098;13.716;2023-06-22T13:15:14;6.72;;;5.90;;
7557;SDS011;3820;51.098;13.716;2023-06-22T13:17:41;7.65;;;5.70;;
7557;SDS011;3820;51.098;13.716;2023-06-22T13:20:07;8.35;;;6.00;;
7557;SDS011;3820;51.098;13.716;2023-06-22T13:22:35;7.20;;;5.50;;
7557;SDS011;3820;51.098;13.716;2023-06-22T13:25:09;8.30;;;6.00;;
7557;SDS011;3820;51.098;13.716;2023-06-22T13:27:39;8.05;;;5.63;;
7557;SDS011;3820;51.098;13.716;2023-06-22T13:30:06;8.00;;;5.72;;
7557;SDS011;3820;51.098;13.716;2023-06-22T13:32:37;7.05;;;5.55;;
7557;SDS011;3820;51.098;13.716;2023-06-22T13:35:04;7.05;;;5.88;;
7557;SDS011;3820;51.098;13.716;2023-06-22T13:37:31;6.35;;;5.32;;
7557;SDS011;3820;51.098;13.716;2023-06-22T13:39:57;6.07;;;5.25;;
7557;SDS011;3820;51.098;13.716;2023-06-22T13:42:25;7.32;;;5.13;;
7557;SDS011;3820;51.098;13.716;2023-06-22T13:44:52;7.60;;;5.60;;
7557;SDS011;3820;51.098;13.716;2023-06-22T13:47:19;6.93;;;5.78;;
7557;SDS011;3820;51.098;13.716;2023-06-22T13:49:45;7.45;;;5.65;;
7557;SDS011;3820;51.098;13.716;2023-06-22T13:52:12;7.40;;;5.43;;
7557;SDS011;3820;51.098;13.716;2023-06-22T13:54:39;8.02;;;5.65;;
7557;SDS011;3820;51.098;13.716;2023-06-22T13:57:05;6.53;;;5.70;;
7557;SDS011;3820;51.098;13.716;2023-06-22T13:59:32;7.47;;;6.10;;
7557;SDS011;3820;51.098;13.716;2023-06-22T14:01:59;6.28;;;5.25;;
7557;SDS011;3820;51.098;13.716;2023-06-22T14:04:25;6.63;;;5.30;;
7557;SDS011;3820;51.098;13.716;2023-06-22T14:06:53;7.22;;;6.10;;
7557;SDS011;3820;51.098;13.716;2023-06-22T14:09:22;7.25;;;5.55;;
7557;SDS011;3820;51.098;13.716;2023-06-22T14:11:50;7.50;;;5.70;;
7557;SDS011;3820;51.098;13.716;2023-06-22T14:14:16;7.95;;;5.60;;
7557;SDS011;3820;51.098;13.716;2023-06-22T14:16:43;6.45;;;5.15;;
7557;SDS011;3820;51.098;13.716;2023-06-22T14:19:09;8.70;;;5.78;;
7557;SDS011;3820;51.098;13.716;2023-06-22T14:21:36;7.25;;;5.93;;
7557;SDS011;3820;51.098;13.716;2023-06-22T14:24:02;7.47;;;5.55;;
7557;SDS011;3820;51.098;13.716;2023-06-22T14:26:29;6.85;;;5.78;;
7557;SDS011;3820;51.098;13.716;2023-06-22T14:28:55;8.50;;;6.00;;
7557;SDS011;3820;51.098;13.716;2023-06-22T14:31:23;6.93;;;5.80;;
7557;SDS011;3820;51.098;13.716;2023-06-22T14:33:49;7.95;;;5.90;;
7557;SDS011;3820;51.098;13.716;2023-06-22T14:36:16;6.97;;;5.75;;
7557;SDS011;3820;51.098;13.716;2023-06-22T14:38:46;7.22;;;5.25;;
7557;SDS011;3820;51.098;13.716;2023-06-22T14:41:13;7.72;;;5.70;;
7557;SDS011;3820;51.098;13.716;2023-06-22T14:43:45;7.85;;;5.93;;
7557;SDS011;3820;51.098;13.716;2023-06-22T14:46:16;8.10;;;6.00;;
7557;SDS011;3820;51.098;13.716;2023-06-22T14:48:44;8.40;;;5.97;;
7557;SDS011;3820;51.098;13.716;2023-06-22T14:51:11;7.07;;;5.55;;
7557;SDS011;3820;51.098;13.716;2023-06-22T14:53:42;7.38;;;5.65;;
7557;SDS011;3820;51.098;13.716;2023-06-22T14:56:10;9.60;;;5.93;;
7557;SDS011;3820;51.098;13.716;2023-06-22T14:58:36;6.38;;;5.43;;
7557;SDS011;3820;51.098;13.716;2023-06-22T15:01:03;9.05;;;6.15;;
7557;SDS011;3820;51.098;13.716;2023-06-22T15:03:30;7.00;;;6.03;;
7557;SDS011;3820;51.098;13.716;2023-06-22T15:05:59;7.78;;;6.00;;
7557;SDS011;3820;51.098;13.716;2023-06-22T15:08:26;6.95;;;5.82;;
7557;SDS011;3820;51.098;13.716;2023-06-22T15:10:53;7.53;;;6.00;;